createdAt,value
2017-09-24T00:01:03.720Z," 9.03"
2017-09-24T00:06:03.087Z," 9.24"
2017-09-24T00:11:04.163Z," 9.16"
2017-09-24T00:16:04.011Z," 8.96"
2017-09-24T00:21:03.373Z," 9.11"
2017-09-24T00:26:03.777Z," 9.28"
2017-09-24T00:31:03.122Z," 9.15"
2017-09-24T00:36:03.441Z," 9.11"
2017-09-24T00:41:02.992Z," 9.13"
2017-09-24T00:46:03.376Z," 9.52"
2017-09-24T00:51:03.701Z," 9.19"
2017-09-24T00:56:03.224Z," 9.21"
2017-09-24T01:01:03.404Z," 9.08"
2017-09-24T01:06:03.779Z," 9.11"
2017-09-24T01:11:03.337Z," 9.23"
2017-09-24T01:16:03.773Z," 9.36"
2017-09-24T01:21:03.042Z," 9.44"
2017-09-24T01:26:03.473Z," 9.27"
2017-09-24T01:31:03.691Z," 9.24"
2017-09-24T01:36:03.092Z," 9.42"
2017-09-24T01:41:03.713Z," 9.87"
2017-09-24T01:46:03.035Z," 9.98"
2017-09-24T01:51:03.319Z," 9.90"
2017-09-24T01:56:03.707Z," 9.88"
2017-09-24T02:01:03.043Z," 9.91"
2017-09-24T02:06:03.462Z," 9.85"
2017-09-24T02:11:03.056Z," 9.55"
2017-09-24T02:16:03.458Z," 9.72"
2017-09-24T02:21:03.803Z," 9.72"
2017-09-24T02:26:03.224Z," 9.60"
2017-09-24T02:31:03.506Z," 9.51"
2017-09-24T02:36:03.885Z," 9.06"
2017-09-24T02:41:03.437Z," 9.26"
2017-09-24T02:46:03.781Z," 9.47"
2017-09-24T02:51:03.116Z," 9.47"
2017-09-24T02:56:03.495Z," 9.47"
2017-09-24T03:01:03.779Z," 9.47"
2017-09-24T03:06:03.149Z," 9.90"
2017-09-24T03:11:03.727Z," 9.77"
2017-09-24T03:16:03.129Z," 9.89"
2017-09-24T03:21:03.454Z," 9.60"
2017-09-24T03:26:03.849Z," 9.44"
2017-09-24T03:31:03.139Z," 9.54"
2017-09-24T03:36:03.563Z," 9.62"
2017-09-24T03:41:03.131Z," 9.63"
2017-09-24T03:46:03.535Z," 9.56"
2017-09-24T03:51:03.832Z," 9.27"
2017-09-24T03:56:03.233Z," 9.47"
2017-09-24T04:01:03.539Z," 9.57"
2017-09-24T04:06:03.922Z," 9.42"
2017-09-24T04:11:03.501Z," 9.58"
2017-09-24T04:16:03.934Z," 9.62"
2017-09-24T04:21:03.256Z," 9.57"
2017-09-24T04:26:03.492Z," 9.49"
2017-09-24T04:31:03.751Z," 9.01"
2017-09-24T04:36:03.129Z," 9.05"
2017-09-24T04:41:03.734Z," 9.05"
2017-09-24T04:46:03.119Z," 8.88"
2017-09-24T04:51:03.532Z," 9.00"
2017-09-24T04:56:03.917Z," 8.96"
2017-09-24T05:01:03.196Z," 9.06"
2017-09-24T05:06:03.590Z," 9.05"
2017-09-24T05:11:03.174Z," 9.08"
2017-09-24T05:16:03.511Z," 8.96"
2017-09-24T05:21:03.913Z," 8.91"
2017-09-24T05:26:03.285Z," 8.91"
2017-09-24T05:31:03.558Z," 8.91"
2017-09-24T05:36:03.922Z," 9.03"
2017-09-24T05:41:03.566Z," 9.16"
2017-09-24T05:46:03.921Z," 9.49"
2017-09-24T05:51:03.227Z," 9.50"
2017-09-24T05:56:03.644Z," 9.67"
2017-09-24T06:01:03.945Z," 9.72"
2017-09-24T06:06:03.349Z," 9.58"
2017-09-24T06:11:03.907Z," 9.50"
2017-09-24T06:16:03.334Z," 9.55"
2017-09-24T06:21:03.619Z," 9.55"
2017-09-24T06:26:03.994Z," 9.71"
2017-09-24T06:31:03.300Z," 9.68"
2017-09-24T06:36:03.657Z," 9.76"
2017-09-24T06:41:03.328Z," 9.76"
2017-09-24T06:46:03.702Z," 9.70"
2017-09-24T06:51:03.974Z," 9.85"
2017-09-24T06:56:03.397Z," 9.94"
2017-09-24T07:01:03.657Z,10.13
2017-09-24T07:06:03.092Z," 9.95"
2017-09-24T07:11:03.656Z,10.05
2017-09-24T07:16:03.073Z,10.10
2017-09-24T07:21:03.395Z,10.12
2017-09-24T07:26:03.822Z,10.39
2017-09-24T07:31:03.060Z,10.61
2017-09-24T07:36:03.488Z,10.40
2017-09-24T07:41:03.014Z,10.54
2017-09-24T07:46:03.448Z,10.56
2017-09-24T07:51:03.711Z,10.76
2017-09-24T07:56:03.085Z,10.69
2017-09-24T08:01:03.367Z,11.12
2017-09-24T08:06:03.787Z,11.04
2017-09-24T08:11:03.346Z,11.15
2017-09-24T08:16:03.689Z,11.32
2017-09-24T08:21:03.030Z,11.43
2017-09-24T08:26:03.418Z,11.55
2017-09-24T08:31:03.736Z,11.83
2017-09-24T08:36:03.109Z,12.19
2017-09-24T08:41:03.709Z,12.20
2017-09-24T08:46:03.076Z,12.21
2017-09-24T08:51:03.378Z,12.67
2017-09-24T08:56:03.793Z,12.70
2017-09-24T09:01:03.050Z,12.72
2017-09-24T09:06:03.427Z,12.80
2017-09-24T09:11:03.157Z,13.06
2017-09-24T09:16:03.517Z,13.36
2017-09-24T09:21:03.826Z,13.25
2017-09-24T09:26:03.246Z,13.79
2017-09-24T09:31:03.548Z,14.00
2017-09-24T09:36:03.922Z,14.29
2017-09-24T09:41:03.533Z,14.37
2017-09-24T09:46:03.887Z,14.74
2017-09-24T09:51:03.234Z,14.79
2017-09-24T09:56:03.573Z,14.83
2017-09-24T10:01:03.885Z,14.59
2017-09-24T10:06:03.301Z,14.52
2017-09-24T10:11:03.858Z,14.78
2017-09-24T10:16:03.213Z,14.97
2017-09-24T10:21:03.586Z,14.65
2017-09-24T10:26:04.035Z,14.54
2017-09-24T10:31:03.295Z,14.50
2017-09-24T10:36:04.682Z,14.67
2017-09-24T10:41:03.231Z,14.87
2017-09-24T10:46:03.645Z,14.26
2017-09-24T10:51:03.905Z,14.91
2017-09-24T10:56:03.328Z,14.71
2017-09-24T11:01:03.596Z,14.39
2017-09-24T11:06:04.024Z,14.35
2017-09-24T11:11:03.600Z,14.39
2017-09-24T11:16:03.984Z,14.56
2017-09-24T11:21:03.298Z,14.05
2017-09-24T11:26:04.465Z,14.56
2017-09-24T11:31:02.988Z,14.19
2017-09-24T11:36:03.384Z,14.39
2017-09-24T11:41:03.959Z,14.36
2017-09-24T11:46:03.326Z,14.60
2017-09-24T11:51:03.610Z,14.33
2017-09-24T11:56:04.006Z,14.47
2017-09-24T12:01:03.327Z,14.45
2017-09-24T12:06:03.726Z,13.97
2017-09-24T12:11:03.290Z,14.51
2017-09-24T12:16:03.639Z,13.78
2017-09-24T12:21:04.023Z,14.13
2017-09-24T12:26:03.413Z,13.56
2017-09-24T12:31:03.669Z,14.37
2017-09-24T12:36:04.021Z,14.38
2017-09-24T12:41:03.637Z,14.44
2017-09-24T12:46:04.040Z,14.41
2017-09-24T12:51:03.328Z,14.15
2017-09-24T12:56:03.652Z,14.39
2017-09-24T13:01:02.990Z,13.55
2017-09-24T13:06:03.375Z,13.78
2017-09-24T13:11:03.974Z,13.87
2017-09-24T13:16:03.324Z,13.34
2017-09-24T13:21:03.672Z,14.20
2017-09-24T13:26:04.059Z,14.11
2017-09-24T13:31:03.333Z,14.22
2017-09-24T13:36:03.749Z,14.31
2017-09-24T13:41:03.297Z,14.33
2017-09-24T13:46:03.653Z,14.45
2017-09-24T13:51:04.018Z,14.31
2017-09-24T13:56:03.385Z,13.82
2017-09-24T14:01:03.700Z,14.26
2017-09-24T14:06:03.057Z,14.15
2017-09-24T14:11:03.615Z,13.58
2017-09-24T14:16:04.010Z,13.96
2017-09-24T14:21:03.337Z,13.96
2017-09-24T14:26:03.726Z,13.98
2017-09-24T14:31:03.032Z,13.60
2017-09-24T14:36:03.436Z,13.84
2017-09-24T14:41:03.050Z,13.70
2017-09-24T14:46:03.432Z,12.61
2017-09-24T14:51:03.715Z,13.46
2017-09-24T14:56:03.096Z,13.74
2017-09-24T15:01:03.449Z,13.84
2017-09-24T15:06:03.833Z,13.93
2017-09-24T15:11:03.400Z,13.91
2017-09-24T15:16:03.784Z,13.82
2017-09-24T15:21:03.109Z,13.88
2017-09-24T15:26:03.498Z,13.72
2017-09-24T15:31:03.730Z,13.49
2017-09-24T15:36:03.126Z,13.77
2017-09-24T15:41:03.699Z,13.05
2017-09-24T15:46:03.042Z,13.24
2017-09-24T15:51:03.346Z,13.07
2017-09-24T15:56:03.773Z,13.21
2017-09-24T16:01:03.006Z,13.43
2017-09-24T16:06:03.368Z,13.29
2017-09-24T16:11:03.971Z,13.09
2017-09-24T16:16:03.394Z,13.15
2017-09-24T16:21:03.682Z,13.11
2017-09-24T16:26:03.038Z,12.63
2017-09-24T16:31:03.366Z,12.66
2017-09-24T16:36:03.735Z,12.50
2017-09-24T16:41:03.303Z,12.17
2017-09-24T16:46:03.756Z,12.57
2017-09-24T16:51:03.028Z,12.27
2017-09-24T16:56:03.398Z,12.59
2017-09-24T17:01:03.729Z,12.37
2017-09-24T17:06:03.330Z,12.45
2017-09-24T17:11:03.348Z,12.40
2017-09-24T17:16:03.705Z,12.28
2017-09-24T17:21:03.071Z,12.71
2017-09-24T17:26:03.498Z,12.55
2017-09-24T17:31:03.782Z,12.86
2017-09-24T17:36:03.176Z,12.65
2017-09-24T17:41:03.881Z,12.72
2017-09-24T17:46:03.286Z,12.37
2017-09-24T17:51:03.628Z,12.34
2017-09-24T17:56:04.081Z,12.05
2017-09-24T18:01:03.553Z,12.11
2017-09-24T18:06:03.875Z,12.13
2017-09-24T18:11:04.138Z,11.94
2017-09-24T18:16:04.708Z,12.16
2017-09-24T18:21:04.381Z,11.87
2017-09-24T18:26:04.522Z,11.84
2017-09-24T18:31:04.177Z,11.95
2017-09-24T18:36:04.760Z,11.78
2017-09-24T18:41:03.943Z,11.82
2017-09-24T18:46:04.757Z,11.83
2017-09-24T18:51:03.974Z,11.66
2017-09-24T18:56:04.598Z,11.45
2017-09-24T19:01:04.895Z,11.52
2017-09-24T19:06:04.339Z,11.36
2017-09-24T19:11:04.208Z,11.45
2017-09-24T19:16:04.520Z,11.34
2017-09-24T19:21:05.023Z,11.44
2017-09-24T19:26:04.298Z,11.26
2017-09-24T19:31:04.813Z,11.22
2017-09-24T19:36:04.172Z,11.40
2017-09-24T19:41:04.824Z,11.31
2017-09-24T19:46:04.000Z,11.22
2017-09-24T19:51:04.734Z,11.24
2017-09-24T19:56:04.011Z,11.27
2017-09-24T20:01:03.373Z,11.48
2017-09-24T20:06:03.705Z,11.12
2017-09-24T20:11:03.880Z,11.26
2017-09-24T20:16:03.890Z,11.02
2017-09-24T20:21:03.186Z,10.89
2017-09-24T20:26:03.629Z,10.91
2017-09-24T20:31:03.509Z,11.04
2017-09-24T20:36:03.761Z,11.02
